Saint-Sauveur-Des-Monts, Canada
Current Conditions -  °F | °C
As of 1:00 PM on Monday 22 Dec 2014 (Local Time) from CYMX Reporting Station
Light Snow Light Snow  
Wind Chill:   Ceiling: 900
Heat Index: 18°   Visibility: 6mi
Dew Point: 12°   Wind: 7mph
Humidity: 79%   Direction: 60°ENE
Pressure: 30.37"   Gusts: NA
Location:  45.9°N, 74.17°W
Report Text: CYMX 221800Z 06006KT 020V080 6SM -SN OVC009 M08/M11 A3037 RMK ST8 SLP290
Loading
Personal Weather Stations






























Interactive Weather Map New forecast layout! Learn more

10-Day Weather Forecast

Advertisements
Track Severe Weather on mobile